South Armidale Weather

South Armidale Weather


Months
January 2015 February 2015 March 2015 April 2015
May 2015 June 2015 July 2015 August 2015
September 2015 October 2015 November 2015 December 2015
Back

June 2015


This Months Observations
Date Time Temperature Humidity Dewpoint Wind Speed High Gust Wind Bearing Rainfall Rate Total Rainfall Pressure Gust Wind Chill Heat Index UV Index
01/06/15 00:00 8.7 98 9.0 0.0 0.0 0 0.0 2.0 1014.0 0.0 9.1 8.7 0.0
01/06/15 00:30 8.5 98 9.0 0.0 0.0 0 0.0 0.0 1014.0 0.0 8.5 8.5 0.0
01/06/15 01:00 7.7 98 8.0 0.0 1.4 1 0.0 0.0 1014.0 1.4 7.7 7.7 0.0
01/06/15 01:30 6.7 98 7.0 1.8 4.7 216 0.0 0.0 1014.0 2.5 6.8 6.7 0.0
01/06/15 03:00 5.0 98 5.0 0.0 2.2 181 0.0 0.0 1012.0 2.2 5.0 5.0 0.0
01/06/15 20:00 2.5 77 -1.0 0.0 2.2 132 0.0 0.0 1016.0 0.0 2.5 2.5 0.0
01/06/15 20:30 2.1 77 -1.0 0.0 0.0 0 0.0 0.0 1017.0 0.0 2.1 2.1 0.0
01/06/15 21:00 1.6 77 -2.0 0.0 0.0 0 0.0 0.0 1018.0 0.0 1.6 1.6 0.0
01/06/15 21:30 0.7 78 -3.0 0.0 0.0 0 0.0 0.0 1018.0 0.0 0.7 0.7 0.0
01/06/15 22:00 0.3 79 -3.0 0.0 0.0 0 0.0 0.0 1018.0 0.0 0.3 0.3 0.0
01/06/15 22:30 0.5 80 -2.0 0.0 0.0 0 0.0 0.0 1018.0 0.0 0.5 0.5 0.0
01/06/15 23:00 0.1 80 -3.0 0.0 0.0 0 0.0 0.0 1018.0 0.0 0.1 0.1 0.0
 
  Back to Top
Date Time Temperature Humidity Dewpoint Wind Speed High Gust Wind Bearing Rainfall Rate Total Rainfall Pressure Gust Wind Chill Heat Index UV Index
03/06/15 00:00 0.7 76 -3.0 0.0 0.0 0 0.0 0.0 1018.0 0.0 0.7 0.7 0.0
03/06/15 03:30 0.2 72 -4.0 0.0 0.0 0 0.0 0.0 1017.0 0.0 0.2 0.2 0.0
03/06/15 21:00 16.4 37 2.0 0.0 0.0 0 0.0 0.0 1018.0 0.0 1.7 16.4 2.0
 
  Back to Top
Date Time Temperature Humidity Dewpoint Wind Speed High Gust Wind Bearing Rainfall Rate Total Rainfall Pressure Gust Wind Chill Heat Index UV Index
05/06/15 07:30 6.0 72 2.0 0.0 0.0 0 0.0 0.0 1017.0 0.0 2.7 6.0 0.0
 
  Back to Top
Date Time Temperature Humidity Dewpoint Wind Speed High Gust Wind Bearing Rainfall Rate Total Rainfall Pressure Gust Wind Chill Heat Index UV Index
06/06/15 13:00 14.8 59 7.0 1.8 5.8 81 0.0 0.0 1022.0 1.8 14.8 14.8 4.0
06/06/15 13:30 16.7 55 8.0 3.6 6.5 87 0.0 0.0 1022.0 4.0 16.7 16.7 3.0
06/06/15 15:00 14.0 59 6.0 3.6 9.7 101 0.0 0.0 1023.0 4.7 14.0 14.0 1.0
06/06/15 17:30 10.9 72 6.0 2.5 6.5 111 0.0 0.0 1024.0 3.2 10.9 10.9 0.0
 
  Back to Top
Date Time Temperature Humidity Dewpoint Wind Speed High Gust Wind Bearing Rainfall Rate Total Rainfall Pressure Gust Wind Chill Heat Index UV Index
08/06/15 16:00 15.4 46 4.0 0.0 3.2 256 0.0 0.0 1022.0 2.2 15.4 15.4 0.0
08/06/15 18:30 8.9 71 4.0 0.0 0.0 0 0.0 0.0 1023.0 0.0 8.9 8.9 0.0
08/06/15 19:00 8.3 70 3.0 0.0 0.0 0 0.0 0.0 1022.0 0.0 8.3 8.3 0.0
08/06/15 19:30 8.2 71 3.0 0.0 0.0 0 0.0 0.0 1023.0 0.0 8.2 8.2 0.0
08/06/15 20:00 7.7 72 3.0 0.0 0.0 0 0.0 0.0 1023.0 0.0 7.7 7.7 0.0
08/06/15 21:00 7.9 74 4.0 0.0 0.0 0 0.0 0.0 1023.0 0.0 7.9 7.9 0.0
08/06/15 22:00 7.8 76 4.0 0.0 0.0 0 0.0 0.0 1024.0 0.0 7.8 7.8 0.0
 
  Back to Top
Date Time Temperature Humidity Dewpoint Wind Speed High Gust Wind Bearing Rainfall Rate Total Rainfall Pressure Gust Wind Chill Heat Index UV Index
09/06/15 13:30 18.0 49 7.0 2.2 3.6 293 0.0 0.0 1021.0 1.4 18.0 18.0 6.0
09/06/15 18:00 18.5 48 8.0 0.0 3.6 267 0.0 0.0 1021.0 0.0 18.5 18.5 2.0
09/06/15 18:30 10.2 75 6.0 0.0 0.0 0 0.0 0.0 1021.0 0.0 10.2 10.2 0.0
 
  Back to Top
Date Time Temperature Humidity Dewpoint Wind Speed High Gust Wind Bearing Rainfall Rate Total Rainfall Pressure Gust Wind Chill Heat Index UV Index
10/06/15 05:00 6.1 95 6.0 0.0 0.0 0 0.0 0.0 1023.0 0.0 6.1 6.1 0.0
10/06/15 13:00 18.9 47 8.0 4.7 10.1 83 0.0 0.0 1025.0 4.0 18.9 18.9 6.0
10/06/15 15:00 16.2 53 7.0 1.4 5.8 67 0.0 0.0 1024.0 2.2 16.2 16.2 1.0
10/06/15 18:00 10.2 73 6.0 3.2 7.6 115 0.0 0.0 1027.0 2.2 10.2 10.2 0.0
10/06/15 18:30 9.4 77 6.0 0.0 4.7 122 0.0 0.0 1027.0 2.5 9.4 9.4 0.0
10/06/15 19:00 8.8 82 6.0 0.0 4.7 87 0.0 0.0 1027.0 4.7 8.8 8.8 0.0
10/06/15 19:30 8.4 86 6.0 0.0 2.5 56 0.0 0.0 1028.0 0.0 8.4 8.4 0.0
10/06/15 20:00 8.4 90 7.0 0.0 6.8 116 0.0 0.0 1028.0 0.0 8.4 8.4 0.0
10/06/15 20:30 8.0 91 7.0 0.0 4.3 105 0.0 0.0 1028.0 0.0 8.0 8.0 0.0
10/06/15 21:00 7.7 93 7.0 4.0 7.2 126 0.0 0.0 1028.0 4.0 7.7 7.7 0.0
10/06/15 21:30 7.5 93 7.0 1.4 4.7 102 0.0 0.0 1028.0 0.0 7.5 7.5 0.0
10/06/15 22:00 8.1 94 7.0 4.7 6.8 95 0.0 0.0 1028.0 1.8 8.1 8.1 0.0
10/06/15 22:30 8.5 95 8.0 0.0 6.8 99 0.0 0.0 1028.0 2.2 8.5 8.5 0.0
 
  Back to Top
Date Time Temperature Humidity Dewpoint Wind Speed High Gust Wind Bearing Rainfall Rate Total Rainfall Pressure Gust Wind Chill Heat Index UV Index
11/06/15 00:30 8.6 98 9.0 1.8 8.6 109 0.0 0.0 1030.0 1.8 8.6 8.6 0.0
11/06/15 01:00 8.7 98 9.0 1.8 6.1 112 0.0 0.0 1029.0 6.1 7.8 8.7 0.0
11/06/15 05:30 8.6 98 9.0 2.2 5.4 102 0.0 1.0 1027.0 2.5 8.6 8.6 0.0
11/06/15 09:30 9.2 98 9.0 1.4 6.8 93 0.0 1.0 1030.0 0.0 9.2 9.2 1.0
11/06/15 12:00 10.3 93 9.0 0.0 5.0 160 0.0 1.0 1030.0 0.0 10.3 10.3 2.0
11/06/15 12:30 10.7 90 9.0 1.8 6.1 92 0.0 1.0 1029.0 0.0 10.7 10.7 2.0
11/06/15 13:00 12.8 82 10.0 1.4 8.6 83 0.0 1.0 1029.0 1.8 12.8 12.8 1.0
11/06/15 13:30 12.4 77 9.0 1.4 5.8 111 0.0 1.0 1028.0 0.0 12.4 12.4 2.0
11/06/15 14:00 13.3 72 9.0 4.3 10.4 81 0.0 1.0 1030.0 2.2 13.3 13.3 2.0
11/06/15 14:30 12.5 69 7.0 3.6 6.5 89 0.0 1.0 1029.0 6.1 12.5 12.5 1.0
11/06/15 17:00 11.6 72 7.0 1.4 2.2 35 0.0 1.0 1029.0 1.8 11.6 11.6 1.0
11/06/15 19:00 9.0 83 6.0 3.6 5.4 90 0.0 1.0 1029.0 1.8 9.0 9.0 0.0
11/06/15 23:30 8.3 82 6.0 4.0 6.5 123 0.0 1.0 1030.0 4.3 8.3 8.3 0.0
 
  Back to Top
Date Time Temperature Humidity Dewpoint Wind Speed High Gust Wind Bearing Rainfall Rate Total Rainfall Pressure Gust Wind Chill Heat Index UV Index
12/06/15 00:00 8.1 85 6.0 4.0 6.1 88 0.0 1.0 1030.0 4.7 8.1 8.1 0.0
12/06/15 01:00 7.8 91 6.0 3.6 9.7 103 0.0 0.0 1029.0 5.8 6.7 7.8 0.0
12/06/15 01:30 7.9 89 6.0 4.0 9.4 111 0.0 0.0 1029.0 4.0 7.9 7.9 0.0
12/06/15 02:30 8.0 84 6.0 4.0 9.0 100 0.0 0.0 1030.0 3.6 8.0 8.0 0.0
12/06/15 04:00 7.7 83 5.0 3.6 11.2 115 0.0 0.0 1029.0 6.5 6.7 7.7 0.0
12/06/15 05:00 6.8 87 5.0 6.1 9.0 110 0.0 0.0 1028.0 9.0 5.0 6.8 0.0
12/06/15 07:00 7.1 93 6.0 3.6 12.6 109 0.0 0.0 1028.0 5.0 6.1 7.1 0.0
12/06/15 07:30 7.5 93 7.0 2.5 6.8 112 0.0 0.0 1029.0 5.4 6.7 7.5 0.0
12/06/15 17:30 9.3 89 8.0 1.4 9.4 98 0.0 0.0 1026.0 0.0 9.3 9.3 0.0
12/06/15 18:30 8.8 94 8.0 5.8 12.6 94 0.0 0.0 1027.0 4.7 8.8 8.8 0.0
12/06/15 19:30 8.8 96 9.0 0.0 4.7 90 0.0 0.0 1027.0 3.2 8.8 8.8 0.0
12/06/15 20:30 8.8 97 9.0 2.5 5.4 130 0.0 0.0 1028.0 4.7 8.8 8.8 0.0
12/06/15 21:00 8.6 98 9.0 4.3 8.6 108 0.0 0.0 1028.0 3.2 8.6 8.6 0.0
12/06/15 21:30 8.7 98 9.0 3.2 11.9 115 0.0 0.0 1028.0 5.0 7.8 8.7 0.0
12/06/15 22:00 8.6 98 9.0 2.5 9.4 114 0.0 0.0 1028.0 3.2 8.6 8.6 0.0
12/06/15 22:30 8.5 98 9.0 2.2 7.9 116 0.0 0.0 1028.0 3.2 8.5 8.5 0.0
12/06/15 23:00 8.5 98 9.0 2.5 10.4 117 0.0 0.0 1028.0 4.7 8.5 8.5 0.0
 
  Back to Top
Date Time Temperature Humidity Dewpoint Wind Speed High Gust Wind Bearing Rainfall Rate Total Rainfall Pressure Gust Wind Chill Heat Index UV Index
13/06/15 19:30 8.9 94 8.0 0.0 0.0 0 0.0 1.0 1025.0 0.0 8.9 8.9 0.0
13/06/15 20:30 9.1 96 9.0 0.0 3.6 117 0.0 1.0 1026.0 0.0 9.1 9.1 0.0
13/06/15 21:30 8.8 97 9.0 0.0 0.0 0 0.0 1.0 1026.0 0.0 8.8 8.8 0.0
13/06/15 22:00 8.7 98 9.0 2.5 8.6 105 0.0 1.0 1025.0 1.4 8.7 8.7 0.0
13/06/15 22:30 8.7 98 9.0 0.0 5.0 106 0.0 1.0 1025.0 1.4 8.7 8.7 0.0
13/06/15 23:00 8.7 98 9.0 1.4 4.0 94 0.0 1.0 1025.0 2.2 8.7 8.7 0.0
13/06/15 23:30 8.6 97 9.0 1.4 6.1 97 0.0 1.0 1025.0 5.0 7.8 8.6 0.0
 
  Back to Top
Date Time Temperature Humidity Dewpoint Wind Speed High Gust Wind Bearing Rainfall Rate Total Rainfall Pressure Gust Wind Chill Heat Index UV Index
14/06/15 00:00 8.6 97 9.0 2.5 6.1 109 0.0 1.0 1025.0 0.0 8.6 8.6 0.0
14/06/15 00:30 8.5 97 9.0 2.2 5.8 89 0.0 0.0 1025.0 1.4 8.5 8.5 0.0
14/06/15 01:30 7.7 97 7.0 0.0 4.7 103 0.0 0.0 1025.0 0.0 7.7 7.7 0.0
14/06/15 02:00 7.6 98 8.0 0.0 3.6 101 0.0 0.0 1025.0 0.0 7.6 7.6 0.0
14/06/15 02:30 7.6 98 8.0 0.0 4.0 124 0.0 0.0 1025.0 0.0 7.6 7.6 0.0
14/06/15 04:00 7.2 98 7.0 0.0 0.0 0 0.0 0.0 1025.0 0.0 7.2 7.2 0.0
14/06/15 04:30 7.1 98 7.0 0.0 0.0 0 0.0 0.0 1024.0 0.0 7.1 7.1 0.0
14/06/15 05:00 6.2 98 6.0 0.0 0.0 0 0.0 0.0 1024.0 0.0 6.2 6.2 0.0
14/06/15 05:30 5.4 98 6.0 0.0 0.0 0 0.0 0.0 1024.0 0.0 5.4 5.4 0.0
14/06/15 06:00 5.2 98 5.0 0.0 0.0 0 0.0 0.0 1025.0 0.0 5.3 5.2 0.0
14/06/15 08:00 6.6 98 7.0 0.0 0.0 0 0.0 0.0 1025.0 0.0 6.6 6.6 0.0
14/06/15 09:30 14.2 81 11.0 3.2 5.0 74 0.0 0.0 1025.0 3.6 14.2 14.2 2.0
14/06/15 10:00 16.9 72 12.0 1.8 4.7 93 0.0 0.0 1024.0 4.3 16.9 16.9 2.0
14/06/15 15:30 17.0 47 6.0 0.0 2.2 162 0.0 0.0 1022.0 1.4 17.0 17.0 0.0
14/06/15 19:00 15.9 49 6.0 0.0 0.0 0 0.0 0.0 1024.0 0.0 15.9 15.9 0.0
14/06/15 19:30 10.5 79 7.0 0.0 0.0 0 0.0 0.0 1023.0 0.0 10.5 10.5 0.0
14/06/15 20:00 10.4 84 8.0 0.0 2.2 220 0.0 0.0 1023.0 0.0 10.4 10.4 0.0
14/06/15 20:30 10.2 85 8.0 0.0 2.2 90 0.0 0.0 1023.0 0.0 10.2 10.2 0.0
14/06/15 21:30 10.4 93 9.0 0.0 4.7 92 0.0 0.0 1024.0 2.2 10.4 10.4 0.0
14/06/15 22:00 10.3 93 9.0 3.6 6.8 103 0.0 0.0 1024.0 6.5 10.3 10.3 0.0
14/06/15 23:00 9.7 94 9.0 1.8 5.8 124 0.0 0.0 1023.0 0.0 9.7 9.7 0.0
14/06/15 23:30 9.4 95 9.0 0.0 4.3 118 0.0 0.0 1023.0 0.0 9.4 9.4 0.0
 
  Back to Top
Date Time Temperature Humidity Dewpoint Wind Speed High Gust Wind Bearing Rainfall Rate Total Rainfall Pressure Gust Wind Chill Heat Index UV Index
15/06/15 00:00 8.9 95 9.0 0.0 1.8 225 0.0 0.0 1023.0 0.0 8.9 8.9 0.0
15/06/15 00:30 8.9 95 9.0 0.0 0.0 0 0.0 0.0 1023.0 0.0 8.9 8.9 0.0
15/06/15 01:00 8.5 95 8.0 0.0 0.0 0 0.0 0.0 1022.0 0.0 8.4 8.5 0.0
15/06/15 09:00 13.8 78 10.0 1.8 7.6 105 0.0 0.0 1023.0 4.0 13.8 13.8 0.0
15/06/15 09:30 15.5 71 11.0 0.0 3.6 135 0.0 0.0 1023.0 0.0 15.5 15.5 1.0
15/06/15 16:30 15.1 53 6.0 3.2 9.7 104 0.0 0.0 1020.0 2.5 15.1 15.1 0.0
15/06/15 18:30 10.8 84 8.0 0.0 2.5 90 0.0 0.0 1023.0 0.0 10.8 10.8 0.0
15/06/15 19:00 10.2 88 9.0 0.0 2.5 147 0.0 0.0 1023.0 0.0 10.2 10.2 0.0
15/06/15 19:30 10.0 90 9.0 0.0 1.4 90 0.0 0.0 1023.0 0.0 10.0 10.0 0.0
15/06/15 20:00 10.2 91 9.0 2.2 4.7 127 0.0 0.0 1023.0 0.0 10.2 10.2 0.0
15/06/15 20:30 9.8 93 9.0 0.0 4.7 126 0.0 0.0 1023.0 0.0 9.8 9.8 0.0
15/06/15 21:00 9.9 94 9.0 0.0 5.4 122 0.0 0.0 1023.0 0.0 9.9 9.9 0.0
15/06/15 21:30 10.1 94 9.0 0.0 6.5 109 0.0 0.0 1024.0 1.4 10.1 10.1 0.0
15/06/15 22:00 10.5 92 9.0 0.0 9.7 107 0.0 0.0 1023.0 1.8 10.5 10.5 0.0
15/06/15 22:30 10.6 91 9.0 1.4 9.7 127 0.0 0.0 1023.0 6.8 10.6 10.6 0.0
15/06/15 23:00 10.9 90 9.0 0.0 6.5 104 0.0 0.0 1022.0 0.0 10.9 10.9 0.0
15/06/15 23:30 10.7 90 9.0 4.7 8.6 114 0.0 0.0 1023.0 0.0 10.7 10.7 0.0
 
  Back to Top
Date Time Temperature Humidity Dewpoint Wind Speed High Gust Wind Bearing Rainfall Rate Total Rainfall Pressure Gust Wind Chill Heat Index UV Index
16/06/15 00:00 10.5 91 9.0 0.0 1.4 158 0.0 0.0 1023.0 0.0 10.5 10.5 0.0
16/06/15 00:30 10.1 91 9.0 4.0 6.1 118 0.0 0.0 1022.0 4.0 10.1 10.1 0.0
16/06/15 14:30 13.8 82 11.0 0.0 3.2 31 0.0 0.0 1018.0 0.0 13.8 13.8 0.0
16/06/15 15:30 13.7 82 11.0 0.0 0.0 0 0.0 0.0 1018.0 0.0 13.7 13.7 0.0
16/06/15 16:00 13.8 83 11.0 0.0 0.0 0 0.0 0.0 1018.0 0.0 13.8 13.8 0.0
16/06/15 16:30 13.3 85 11.0 0.0 0.0 0 0.0 0.0 1018.0 0.0 13.3 13.3 0.0
16/06/15 17:00 13.1 84 11.0 0.0 4.0 135 0.0 0.0 1018.0 0.0 13.1 13.1 0.0
16/06/15 17:30 12.7 85 11.0 2.5 4.7 131 0.0 0.0 1018.0 3.2 12.7 12.7 0.0
16/06/15 18:00 12.3 88 11.0 0.0 4.7 104 0.0 0.0 1018.0 0.0 12.3 12.3 0.0
16/06/15 18:30 12.2 90 11.0 0.0 5.0 112 0.0 0.0 1018.0 5.0 12.2 12.2 0.0
16/06/15 19:00 12.1 90 11.0 4.3 5.8 120 0.0 0.0 1018.0 2.5 12.1 12.1 0.0
16/06/15 19:30 11.8 92 10.0 0.0 0.0 0 0.0 0.0 1018.0 0.0 11.8 11.8 0.0
16/06/15 20:00 11.6 93 11.0 0.0 4.0 90 0.0 0.0 1018.0 0.0 11.6 11.6 0.0
16/06/15 20:30 11.5 93 11.0 0.0 4.7 102 0.0 0.0 1018.0 0.0 11.5 11.5 0.0
16/06/15 21:00 11.2 94 10.0 0.0 4.3 126 0.0 0.0 1018.0 0.0 11.2 11.2 0.0
16/06/15 21:30 11.0 95 10.0 1.4 5.0 102 0.0 0.0 1018.0 0.0 11.0 11.0 0.0
16/06/15 22:00 11.0 95 10.0 0.0 4.3 107 0.0 0.0 1017.0 0.0 11.0 11.0 0.0
16/06/15 22:30 11.1 95 10.0 2.5 5.4 105 0.0 0.0 1017.0 2.2 11.1 11.1 0.0
16/06/15 23:00 11.4 95 11.0 3.2 4.0 118 0.0 0.0 1017.0 4.0 11.4 11.4 0.0
16/06/15 23:30 11.7 95 11.0 0.0 0.0 0 0.0 0.0 1017.0 0.0 11.7 11.7 0.0
 
  Back to Top
Date Time Temperature Humidity Dewpoint Wind Speed High Gust Wind Bearing Rainfall Rate Total Rainfall Pressure Gust Wind Chill Heat Index UV Index
17/06/15 00:00 11.9 94 11.0 1.4 4.0 104 0.0 0.0 1017.0 0.0 11.9 11.9 0.0
17/06/15 00:30 11.9 94 11.0 2.2 8.6 55 0.0 0.0 1016.0 0.0 11.9 11.9 0.0
17/06/15 01:00 12.2 94 11.0 1.8 6.1 40 0.0 0.0 1015.0 2.5 12.2 12.2 0.0
17/06/15 01:30 12.3 94 12.0 1.8 5.8 44 0.0 0.0 1015.0 1.8 12.3 12.3 0.0
17/06/15 02:00 12.5 95 12.0 2.2 6.1 33 0.0 0.0 1015.0 3.2 12.5 12.5 0.0
17/06/15 03:00 12.6 95 12.0 3.6 4.3 21 0.0 0.0 1015.0 3.2 12.6 12.6 0.0
17/06/15 03:30 12.6 95 12.0 0.0 4.3 29 0.0 0.0 1014.0 2.2 12.6 12.6 0.0
17/06/15 07:30 12.5 95 12.0 0.0 5.8 52 0.0 0.0 1014.0 0.0 12.5 12.5 0.0
17/06/15 11:30 12.2 97 12.0 0.0 5.0 290 0.0 1.3 1013.0 0.0 12.2 12.2 1.0
17/06/15 16:00 12.4 93 12.0 1.8 9.7 318 0.0 1.3 1011.0 4.0 12.4 12.4 0.0
17/06/15 16:30 11.7 93 11.0 0.0 8.6 325 0.0 1.3 1011.0 0.0 11.7 11.7 0.0
17/06/15 17:00 11.1 93 10.0 3.2 4.7 274 0.0 1.3 1012.0 4.7 11.1 11.1 0.0
17/06/15 17:30 10.6 94 10.0 1.4 3.6 262 0.0 1.3 1012.0 1.4 10.6 10.6 0.0
17/06/15 18:00 10.9 95 10.0 3.6 5.8 272 0.0 1.3 1013.0 4.0 10.9 10.9 0.0
17/06/15 18:30 10.9 95 10.0 1.4 4.3 279 0.0 1.3 1012.0 1.8 10.9 10.9 0.0
17/06/15 19:00 10.9 95 10.0 0.0 2.5 233 0.0 1.3 1013.0 0.0 10.9 10.9 0.0
17/06/15 19:30 9.2 95 9.0 1.4 6.1 260 0.0 1.3 1014.0 0.0 9.2 9.2 0.0
17/06/15 20:00 9.1 95 9.0 0.0 2.2 269 0.0 1.3 1014.0 0.0 9.1 9.1 0.0
17/06/15 20:30 8.5 97 9.0 0.0 1.8 248 0.0 1.3 1014.0 0.0 8.5 8.5 0.0
17/06/15 21:00 8.5 97 9.0 0.0 0.0 0 0.0 1.3 1014.0 0.0 8.5 8.5 0.0
17/06/15 21:30 8.5 97 9.0 0.0 0.0 0 0.0 1.3 1014.0 0.0 8.5 8.5 0.0
17/06/15 23:00 8.5 98 9.0 0.0 4.3 276 0.0 1.3 1014.0 0.0 8.5 8.5 0.0
17/06/15 23:30 8.4 98 9.0 0.0 5.0 269 0.0 1.3 1013.0 0.0 8.4 8.4 0.0
 
  Back to Top
Date Time Temperature Humidity Dewpoint Wind Speed High Gust Wind Bearing Rainfall Rate Total Rainfall Pressure Gust Wind Chill Heat Index UV Index
18/06/15 00:00 8.0 98 8.0 0.0 4.0 229 0.0 1.3 1014.0 0.0 8.0 8.0 0.0
18/06/15 05:30 7.6 98 8.0 3.2 5.4 243 0.0 0.0 1013.0 1.8 7.6 7.6 0.0
18/06/15 09:30 8.8 95 9.0 0.0 1.4 1 0.0 0.0 1013.0 1.4 8.8 8.8 0.0
18/06/15 13:30 13.3 71 9.0 0.0 3.6 241 0.0 0.0 1012.0 0.0 13.3 13.3 1.0
18/06/15 19:00 7.0 85 5.0 0.0 0.0 0 0.0 0.0 1014.0 0.0 7.0 7.0 0.0
18/06/15 19:30 7.1 86 5.0 0.0 0.0 0 0.0 0.0 1014.0 0.0 7.1 7.1 0.0
18/06/15 20:30 6.8 88 5.0 0.0 0.0 0 0.0 0.0 1014.0 0.0 6.8 6.8 0.0
18/06/15 21:00 7.2 90 6.0 0.0 0.0 0 0.0 0.0 1014.0 0.0 7.2 7.2 0.0
18/06/15 21:30 7.1 91 6.0 0.0 0.0 0 0.0 0.0 1014.0 0.0 7.1 7.1 0.0
18/06/15 22:00 7.1 92 6.0 0.0 0.0 0 0.0 0.0 1014.0 0.0 7.1 7.1 0.0
18/06/15 22:30 6.5 92 6.0 0.0 0.0 0 0.0 0.0 1014.0 0.0 6.5 6.5 0.0
18/06/15 23:00 6.1 93 5.0 0.0 0.0 0 0.0 0.0 1014.0 0.0 6.2 6.1 0.0
18/06/15 23:30 6.3 94 6.0 0.0 0.0 0 0.0 0.0 1014.0 0.0 6.3 6.3 0.0
 
  Back to Top
Date Time Temperature Humidity Dewpoint Wind Speed High Gust Wind Bearing Rainfall Rate Total Rainfall Pressure Gust Wind Chill Heat Index UV Index
19/06/15 00:00 6.6 95 6.0 0.0 0.0 0 0.0 0.0 1014.0 0.0 6.6 6.6 0.0
19/06/15 03:30 6.0 98 6.0 0.0 0.0 0 0.0 0.0 1014.0 0.0 6.0 6.0 0.0
19/06/15 06:30 5.5 98 6.0 0.0 5.0 220 0.0 0.0 1013.0 0.0 5.5 5.5 0.0
19/06/15 07:30 5.6 98 6.0 0.0 2.2 209 0.0 0.0 1012.0 0.0 5.6 5.6 0.0
19/06/15 21:30 4.7 94 4.0 0.0 0.0 0 0.0 1.0 1018.0 0.0 4.7 4.7 0.0
19/06/15 22:30 4.2 95 4.0 0.0 0.0 0 0.0 1.0 1016.0 0.0 4.2 4.2 0.0
19/06/15 23:00 4.7 96 4.0 0.0 0.0 0 0.0 1.0 1016.0 0.0 4.7 4.7 0.0
19/06/15 23:30 5.2 96 5.0 0.0 0.0 0 0.0 1.0 1017.0 0.0 5.2 5.2 0.0
 
  Back to Top
Date Time Temperature Humidity Dewpoint Wind Speed High Gust Wind Bearing Rainfall Rate Total Rainfall Pressure Gust Wind Chill Heat Index UV Index
20/06/15 00:00 4.3 96 4.0 0.0 0.0 0 0.0 1.0 1016.0 0.0 4.3 4.3 0.0
20/06/15 00:30 3.8 97 3.0 0.0 0.0 0 0.0 0.0 1017.0 0.0 3.8 3.8 0.0
20/06/15 23:00 2.0 93 1.0 0.0 0.0 0 0.0 0.0 1021.0 0.0 2.0 2.0 0.0
 
  Back to Top
Date Time Temperature Humidity Dewpoint Wind Speed High Gust Wind Bearing Rainfall Rate Total Rainfall Pressure Gust Wind Chill Heat Index UV Index
21/06/15 00:00 1.9 95 1.0 0.0 0.0 0 0.0 0.0 1021.0 0.0 1.9 1.9 0.0
21/06/15 00:30 1.8 95 1.0 0.0 0.0 0 0.0 0.0 1021.0 0.0 1.8 1.8 0.0
21/06/15 01:00 1.6 96 1.0 0.0 0.0 0 0.0 0.0 1021.0 0.0 1.6 1.6 0.0
21/06/15 02:30 1.3 97 1.0 0.0 1.4 90 0.0 0.0 1020.0 0.0 1.4 1.3 0.0
21/06/15 06:00 1.7 97 1.0 0.0 0.0 0 0.0 0.0 1021.0 0.0 1.7 1.7 0.0
21/06/15 18:00 6.1 68 1.0 1.4 1.4 90 0.0 0.0 1022.0 0.0 6.1 6.1 0.0
21/06/15 20:30 4.1 80 1.0 0.0 0.0 0 0.0 0.0 1025.0 0.0 4.1 4.1 0.0
21/06/15 21:00 4.0 81 1.0 0.0 0.0 0 0.0 0.0 1025.0 0.0 4.0 4.0 0.0
21/06/15 23:00 3.5 87 2.0 0.0 0.0 0 0.0 0.0 1024.0 0.0 3.5 3.5 0.0
 
  Back to Top
Date Time Temperature Humidity Dewpoint Wind Speed High Gust Wind Bearing Rainfall Rate Total Rainfall Pressure Gust Wind Chill Heat Index UV Index
22/06/15 17:30 14.1 45 3.0 0.0 0.0 0 0.0 0.0 1023.0 0.0 14.1 14.1 0.0
22/06/15 18:00 8.7 67 3.0 0.0 0.0 0 0.0 0.0 1024.0 0.0 8.8 8.7 0.0
22/06/15 19:30 6.8 80 4.0 0.0 0.0 0 0.0 0.0 1025.0 0.0 6.8 6.8 0.0
22/06/15 20:00 6.2 83 4.0 0.0 0.0 0 0.0 0.0 1025.0 0.0 6.2 6.2 0.0
22/06/15 21:00 6.0 86 4.0 0.0 0.0 0 0.0 0.0 1025.0 0.0 6.0 6.0 0.0
22/06/15 21:30 6.1 87 4.0 0.0 0.0 0 0.0 0.0 1025.0 0.0 6.1 6.1 0.0
22/06/15 22:30 6.0 86 4.0 0.0 3.6 114 0.0 0.0 1025.0 0.0 6.0 6.0 0.0
22/06/15 23:00 5.9 87 4.0 0.0 5.4 135 0.0 0.0 1025.0 0.0 5.9 5.9 0.0
22/06/15 23:30 5.5 87 4.0 0.0 0.0 0 0.0 0.0 1025.0 0.0 5.5 5.5 0.0
 
  Back to Top
Date Time Temperature Humidity Dewpoint Wind Speed High Gust Wind Bearing Rainfall Rate Total Rainfall Pressure Gust Wind Chill Heat Index UV Index
23/06/15 00:00 5.3 89 4.0 1.4 4.0 103 0.0 0.0 1025.0 0.0 5.3 5.3 0.0
23/06/15 07:00 5.2 91 4.0 0.0 3.6 90 0.0 0.0 1025.0 0.0 5.2 5.2 0.0
23/06/15 19:30 7.5 73 3.0 0.0 2.2 135 0.0 0.0 1022.0 0.0 7.5 7.5 0.0
23/06/15 20:30 6.4 77 3.0 0.0 0.0 0 0.0 0.0 1023.0 0.0 6.4 6.4 0.0
23/06/15 21:00 6.1 77 3.0 0.0 0.0 0 0.0 0.0 1023.0 0.0 6.1 6.1 0.0
23/06/15 21:30 5.8 80 3.0 0.0 0.0 0 0.0 0.0 1023.0 0.0 5.8 5.8 0.0
23/06/15 22:00 5.1 82 3.0 0.0 0.0 0 0.0 0.0 1023.0 0.0 5.1 5.1 0.0
23/06/15 22:30 5.1 83 3.0 0.0 0.0 0 0.0 0.0 1023.0 0.0 5.1 5.1 0.0
23/06/15 23:00 5.3 84 3.0 0.0 0.0 0 0.0 0.0 1023.0 0.0 5.3 5.3 0.0
 
  Back to Top
Date Time Temperature Humidity Dewpoint Wind Speed High Gust Wind Bearing Rainfall Rate Total Rainfall Pressure Gust Wind Chill Heat Index UV Index
24/06/15 00:00 6.3 83 4.0 0.0 1.8 46 0.0 0.0 1022.0 0.0 6.3 6.3 0.0
24/06/15 01:30 7.0 79 4.0 0.0 0.0 0 0.0 0.0 1022.0 0.0 7.0 7.0 0.0
24/06/15 15:30 15.9 44 4.0 0.0 2.2 203 0.0 0.0 1019.0 0.0 15.9 15.9 0.0
24/06/15 16:00 14.9 46 4.0 0.0 1.8 262 0.0 0.0 1019.0 0.0 14.9 14.9 0.0
24/06/15 16:30 14.2 47 3.0 0.0 0.0 0 0.0 0.0 1018.0 0.0 14.2 14.2 0.0
24/06/15 17:00 12.1 51 3.0 0.0 0.0 0 0.0 0.0 1018.0 0.0 12.1 12.1 0.0
24/06/15 17:30 10.8 57 3.0 0.0 0.0 0 0.0 0.0 1019.0 0.0 10.8 10.8 0.0
24/06/15 18:00 10.6 61 3.0 0.0 3.6 90 0.0 0.0 1019.0 0.0 10.6 10.6 0.0
24/06/15 18:30 10.5 63 4.0 0.0 0.0 0 0.0 0.0 1020.0 0.0 10.5 10.5 0.0
24/06/15 19:00 10.6 65 5.0 0.0 0.0 0 0.0 0.0 1021.0 0.0 10.6 10.6 0.0
24/06/15 19:30 10.7 66 5.0 0.0 1.8 90 0.0 0.0 1021.0 0.0 10.7 10.7 0.0
24/06/15 20:00 10.6 68 5.0 0.0 1.4 90 0.0 0.0 1021.0 0.0 10.6 10.6 0.0
24/06/15 20:30 9.9 70 5.0 0.0 0.0 0 0.0 0.0 1021.0 0.0 9.9 9.9 0.0
24/06/15 21:00 9.6 73 5.0 1.8 4.0 124 0.0 0.0 1021.0 0.0 9.6 9.6 0.0
24/06/15 21:30 8.7 75 5.0 0.0 0.0 0 0.0 0.0 1021.0 0.0 8.7 8.7 0.0
24/06/15 22:00 8.3 79 5.0 0.0 3.2 90 0.0 0.0 1021.0 2.2 8.4 8.3 0.0
24/06/15 22:30 7.7 82 5.0 0.0 0.0 0 0.0 0.0 1020.0 0.0 7.7 7.7 0.0
24/06/15 23:00 7.0 84 5.0 0.0 0.0 0 0.0 0.0 1021.0 0.0 7.0 7.0 0.0
24/06/15 23:30 6.7 86 5.0 0.0 0.0 0 0.0 0.0 1020.0 0.0 6.7 6.7 0.0
 
  Back to Top
Date Time Temperature Humidity Dewpoint Wind Speed High Gust Wind Bearing Rainfall Rate Total Rainfall Pressure Gust Wind Chill Heat Index UV Index
25/06/15 00:00 6.8 87 5.0 0.0 0.0 0 0.0 0.0 1019.0 0.0 6.8 6.8 0.0
25/06/15 00:30 6.2 88 5.0 0.0 0.0 0 0.0 0.0 1018.0 0.0 6.2 6.2 0.0
25/06/15 01:00 5.5 90 4.0 0.0 0.0 0 0.0 0.0 1018.0 0.0 5.5 5.5 0.0
25/06/15 10:30 15.6 67 10.0 0.0 1.4 1 0.0 0.0 1021.0 0.0 15.6 15.6 1.0
25/06/15 14:30 17.1 44 5.0 0.0 0.0 0 0.0 0.0 1019.0 0.0 17.1 17.1 1.0
25/06/15 16:00 14.3 50 4.0 0.0 1.4 181 0.0 0.0 1020.0 0.0 14.3 14.3 0.0
25/06/15 16:30 13.5 54 5.0 0.0 0.0 0 0.0 0.0 1021.0 0.0 13.5 13.5 0.0
25/06/15 17:00 12.5 60 6.0 0.0 3.2 78 0.0 0.0 1021.0 0.0 12.5 12.5 0.0
25/06/15 17:30 11.3 65 5.0 0.0 0.0 0 0.0 0.0 1021.0 0.0 11.3 11.3 0.0
25/06/15 18:00 10.3 69 5.0 0.0 0.0 0 0.0 0.0 1021.0 0.0 10.3 10.3 0.0
25/06/15 18:30 9.4 73 5.0 0.0 0.0 0 0.0 0.0 1021.0 0.0 9.4 9.4 0.0
25/06/15 19:00 8.9 76 5.0 0.0 0.0 0 0.0 0.0 1022.0 0.0 8.9 8.9 0.0
25/06/15 19:30 9.8 77 6.0 0.0 1.8 206 0.0 0.0 1022.0 0.0 9.8 9.8 0.0
25/06/15 20:00 9.7 79 6.0 0.0 3.2 139 0.0 0.0 1023.0 0.0 9.7 9.7 0.0
25/06/15 20:30 9.2 81 6.0 0.0 0.0 0 0.0 0.0 1022.0 0.0 9.2 9.2 0.0
25/06/15 21:00 9.1 83 6.0 0.0 0.0 0 0.0 0.0 1023.0 0.0 9.1 9.1 0.0
25/06/15 21:30 8.9 86 7.0 0.0 0.0 0 0.0 0.0 1023.0 0.0 8.9 8.9 0.0
25/06/15 22:30 8.3 90 7.0 0.0 1.8 90 0.0 0.0 1023.0 0.0 8.3 8.3 0.0
25/06/15 23:00 8.5 90 7.0 0.0 0.0 0 0.0 0.0 1023.0 0.0 8.5 8.5 0.0
 
  Back to Top
Date Time Temperature Humidity Dewpoint Wind Speed High Gust Wind Bearing Rainfall Rate Total Rainfall Pressure Gust Wind Chill Heat Index UV Index
26/06/15 02:00 7.5 95 7.0 0.0 2.5 135 0.0 0.0 1022.0 0.0 7.5 7.5 0.0
26/06/15 09:30 13.3 84 11.0 0.0 0.0 0 0.0 0.0 1023.0 0.0 7.0 13.3 0.0
26/06/15 13:30 12.1 71 7.0 1.4 5.0 160 0.0 0.0 1025.0 4.0 12.2 12.1 0.0
26/06/15 16:30 10.4 75 6.0 0.0 4.0 90 0.0 0.0 1027.0 0.0 10.4 10.4 0.0
26/06/15 20:30 9.9 79 7.0 0.0 0.0 0 0.0 0.0 1027.0 0.0 10.0 9.9 0.0
26/06/15 22:00 5.7 95 5.0 0.0 0.0 0 0.0 0.0 1030.0 0.0 5.7 5.7 0.0
26/06/15 23:30 5.0 96 5.0 0.0 1.4 135 0.0 0.0 1029.0 0.0 5.0 5.0 0.0
 
  Back to Top
Date Time Temperature Humidity Dewpoint Wind Speed High Gust Wind Bearing Rainfall Rate Total Rainfall Pressure Gust Wind Chill Heat Index UV Index
27/06/15 00:00 4.8 97 4.0 0.0 5.8 124 0.0 0.0 1029.0 0.0 4.8 4.8 0.0
27/06/15 00:30 4.6 98 5.0 3.2 4.3 97 0.0 0.0 1029.0 4.0 4.6 4.6 0.0
27/06/15 03:30 6.2 98 6.0 0.0 4.3 118 0.0 0.0 1027.0 0.0 6.2 6.2 0.0
27/06/15 11:00 17.7 60 10.0 0.0 3.6 26 0.0 0.0 1028.0 1.4 17.7 17.7 4.0
27/06/15 11:30 20.0 53 10.0 0.0 3.6 1 0.0 0.0 1027.0 1.4 20.0 20.0 4.0
27/06/15 15:00 18.8 34 3.0 0.0 2.2 267 0.0 0.0 1026.0 0.0 18.8 18.8 0.0
 
  Back to Top
Date Time Temperature Humidity Dewpoint Wind Speed High Gust Wind Bearing Rainfall Rate Total Rainfall Pressure Gust Wind Chill Heat Index UV Index
28/06/15 01:00 3.0 83 1.0 0.0 0.0 0 0.0 0.0 1026.0 0.0 3.0 3.0 0.0
28/06/15 18:30 8.3 39 -5.0 0.0 0.0 0 0.0 0.0 1028.0 0.0 8.3 8.3 0.0
28/06/15 19:30 6.6 44 -5.0 0.0 1.8 322 0.0 0.0 1028.0 0.0 6.6 6.6 0.0
28/06/15 20:00 5.8 49 -4.0 0.0 0.0 0 0.0 0.0 1029.0 0.0 5.8 5.8 0.0
28/06/15 21:00 5.2 52 -4.0 0.0 2.5 90 0.0 0.0 1029.0 0.0 5.2 5.2 0.0
28/06/15 21:30 4.6 55 -4.0 0.0 0.0 0 0.0 0.0 1029.0 0.0 4.6 4.6 0.0
28/06/15 22:00 4.2 56 -4.0 0.0 0.0 0 0.0 0.0 1029.0 0.0 4.2 4.2 0.0
28/06/15 22:30 3.5 59 -3.0 0.0 0.0 0 0.0 0.0 1029.0 0.0 3.5 3.5 0.0
28/06/15 23:00 2.9 62 -3.0 0.0 0.0 0 0.0 0.0 1029.0 0.0 2.9 2.9 0.0
28/06/15 23:30 3.6 63 -3.0 2.5 4.0 135 0.0 0.0 1029.0 3.2 3.6 3.6 0.0
 
  Back to Top
Date Time Temperature Humidity Dewpoint Wind Speed High Gust Wind Bearing Rainfall Rate Total Rainfall Pressure Gust Wind Chill Heat Index UV Index
29/06/15 00:00 3.8 63 -3.0 0.0 3.6 132 0.0 0.0 1029.0 0.0 3.8 3.8 0.0
29/06/15 00:30 3.7 73 -1.0 0.0 1.4 203 0.0 0.0 1028.0 0.0 3.7 3.7 0.0
29/06/15 01:30 5.0 86 3.0 0.0 2.2 158 0.0 0.0 1027.0 0.0 5.0 5.0 0.0
29/06/15 05:00 5.0 87 3.0 1.4 2.2 90 0.0 0.0 1027.0 0.0 5.0 5.0 0.0
29/06/15 19:00 16.8 36 2.0 0.0 0.0 0 0.0 0.0 1026.0 0.0 16.8 16.8 0.0
29/06/15 19:30 8.4 71 4.0 0.0 0.0 0 0.0 0.0 1027.0 0.0 8.4 8.4 0.0
29/06/15 20:00 8.4 78 5.0 0.0 4.3 56 0.0 0.0 1028.0 0.0 8.5 8.4 0.0
29/06/15 20:30 8.5 83 6.0 0.0 0.0 0 0.0 0.0 1028.0 0.0 8.5 8.5 0.0
29/06/15 21:00 8.0 85 6.0 0.0 1.8 46 0.0 0.0 1028.0 1.8 8.0 8.0 0.0
29/06/15 21:30 7.8 87 6.0 0.0 3.2 67 0.0 0.0 1027.0 0.0 7.8 7.8 0.0
29/06/15 22:00 7.3 88 6.0 0.0 1.8 90 0.0 0.0 1027.0 0.0 7.3 7.3 0.0
 
  Back to Top
Date Time Temperature Humidity Dewpoint Wind Speed High Gust Wind Bearing Rainfall Rate Total Rainfall Pressure Gust Wind Chill Heat Index UV Index
30/06/15 00:00 7.0 94 6.0 0.0 4.7 90 0.0 0.0 1026.0 0.0 7.0 7.0 0.0
30/06/15 03:30 4.5 95 4.0 0.0 0.0 0 0.0 0.0 1025.0 0.0 4.5 4.5 0.0
30/06/15 15:00 19.3 46 8.0 0.0 4.0 331 0.0 0.0 1025.0 0.0 19.3 19.3 3.0
30/06/15 19:00 9.0 63 3.0 0.0 0.0 0 0.0 0.0 1024.0 0.0 9.0 9.0 0.0
30/06/15 19:30 8.6 66 3.0 0.0 0.0 0 0.0 0.0 1024.0 0.0 8.6 8.6 0.0
30/06/15 21:00 8.1 71 3.0 0.0 0.0 0 0.0 0.0 1024.0 0.0 8.1 8.1 0.0
30/06/15 21:30 7.4 72 3.0 0.0 0.0 0 0.0 0.0 1024.0 0.0 7.4 7.4 0.0
30/06/15 22:30 7.8 75 4.0 0.0 2.2 111 0.0 0.0 1023.0 0.0 7.8 7.8 0.0
30/06/15 23:00 7.8 74 3.0 0.0 4.3 132 0.0 0.0 1023.0 4.3 7.8 7.8 0.0
30/06/15 23:30 7.7 76 4.0 0.0 0.0 0 0.0 0.0 1022.0 0.0 7.7 7.7 0.0
  Back to Top
 

This site is NOT a professional weather site.
Never base important decisions on this or any weather information obtained from the Internet.
Website Supported by Cumulus. Contact me Admin